Latest Weather Observations for Palmerville

IDQ60801

Issued at 10:32 am EST Thursday 28 July 2016 (issued every 30 minutes, with the page automatically refreshed every 10 minutes)

About weather observations | Map of weather stations | Latest weather observations for QLD | Other Formats
Station Details ID: 028004 Name: PALMERVILLE Lat: -16.00 Lon: 144.08 Height: 203.8 m
Data from the previous 72 hours. | See also: Recent months at Palmerville
Date/Time
EST
Temp
°C
App
Temp
°C
Dew
Point
°C
Rel
Hum
%
Delta-T
°C
Wind Press
QNH
hPa
Press
MSL
hPa
Rain since
9am
mm
Dir  Spd
km/h
Gust
km/h
Spd
kts
Gust
kts
28/10:30am 27.2 26.8 15.2 47 7.3 E 11 19 6 10 1016.9 1016.1 0.0
28/10:00am 26.1 25.6 14.9 50 6.8 ENE 11 20 6 11 1017.2 1016.4 0.0
28/09:30am 24.5 24.4 14.9 55 5.8 ENE 9 17 5 9 1017.2 1016.4 0.0
28/09:00am 23.7 24.1 15.2 59 5.1 NE 7 9 4 5 1017.3 1016.5 0.0
28/08:30am 21.8 22.3 14.9 65 4.1 ENE 6 9 3 5 1017.4 1016.6 0.0
28/08:00am 18.5 20.3 15.4 82 1.8 CALM 0 0 0 0 1017.3 1016.5 0.0
28/07:30am 16.0 17.8 15.5 97 0.3 CALM 0 0 0 0 1017.0 1016.2 0.0
28/07:00am 15.3 16.8 14.7 96 0.3 CALM 0 0 0 0 1016.8 1016.0 0.0
28/06:30am 15.1 16.4 14.1 94 0.6 CALM 0 0 0 0 1016.5 1015.7 0.0
28/06:00am 15.7 16.9 14.9 95 0.5 ENE 2 7 1 4 1016.3 1015.5 0.0
28/05:30am 15.7 16.8 14.6 93 0.6 ENE 2 7 1 4 1015.9 1015.1 0.0
28/05:00am 16.0 17.4 14.5 91 0.9 CALM 0 0 0 0 1015.7 1014.9 0.0
28/04:30am 16.3 17.7 14.5 89 1.0 CALM 0 0 0 0 1015.7 1014.9 0.0
28/04:00am 16.8 18.0 15.0 89 1.1 ESE 2 7 1 4 1015.8 1015.0 0.0
28/03:30am 17.5 19.4 15.7 89 1.1 CALM 0 0 0 0 1015.7 1014.9 0.0
28/03:00am 17.9 19.8 15.7 87 1.3 CALM 0 0 0 0 1015.7 1014.9 0.0
28/02:30am 18.5 20.5 15.9 85 1.6 CALM 0 0 0 0 1015.7 1014.9 0.0
28/02:00am 18.9 20.8 15.8 82 1.9 CALM 0 0 0 0 1015.9 1015.1 0.0
28/01:30am 19.4 21.4 16.1 81 2.0 CALM 0 0 0 0 1016.0 1015.2 0.0
28/01:00am 19.9 21.3 16.3 80 2.2 NE 4 7 2 4 1016.1 1015.3 0.0
28/12:30am 20.4 22.5 16.2 77 2.5 CALM 0 0 0 0 1016.4 1015.6 0.0
28/12:00am 21.1 23.2 16.3 74 2.9 CALM 0 0 0 0 1016.6 1015.8 0.0
 
Date/Time
EST
Temp
°C
App
Temp
°C
Dew
Point
°C
Rel
Hum
%
Delta-T
°C
Wind Press
QNH
hPa
Press
MSL
hPa
Rain since
9am
mm
Dir  Spd
km/h
Gust
km/h
Spd
kts
Gust
kts
27/11:30pm 22.3 24.6 16.8 71 3.4 CALM 0 0 0 0 1016.7 1015.9 0.0
27/11:00pm 22.3 24.6 16.8 71 3.4 CALM 0 0 0 0 1016.6 1015.8 0.0
27/10:30pm 22.8 24.2 16.4 67 3.9 S 4 7 2 4 1016.6 1015.8 0.0
27/10:00pm 23.2 24.8 17.0 68 3.8 S 4 7 2 4 1016.7 1015.9 0.0
27/09:30pm 24.1 25.7 16.9 64 4.5 E 4 7 2 4 1016.5 1015.7 0.0
27/09:00pm 24.7 25.3 16.9 62 4.9 ESE 9 13 5 7 1016.4 1015.6 0.0
27/08:30pm 25.5 25.8 16.9 59 5.4 E 11 17 6 9 1016.1 1015.3 0.0
27/08:00pm 26.2 25.7 17.0 57 5.8 ESE 15 20 8 11 1015.7 1014.9 0.0
27/07:30pm 26.2 27.6 17.3 58 5.6 ENE 6 11 3 6 1015.4 1014.5 0.0
27/07:00pm 26.8 27.7 17.6 57 5.8 NE 9 15 5 8 1014.9 1014.0 0.0
27/06:30pm 27.3 28.6 17.5 55 6.2 NE 7 11 4 6 1014.6 1013.7 0.0
27/06:00pm 28.3 28.4 16.6 49 7.3 SE 11 17 6 9 1014.2 1013.3 0.0
27/05:30pm 29.0 28.2 16.2 46 8.0 SE 15 20 8 11 1013.8 1012.9 0.0
27/05:00pm 30.0 31.0 16.4 44 8.6 SE 6 11 3 6 1013.4 1012.5 0.0
27/04:30pm 29.8 29.8 16.2 43 8.5 SE 11 15 6 8 1013.2 1012.3 0.0
27/04:00pm 30.4 31.4 15.3 40 9.4 NE 4 9 2 5 1012.9 1012.1 0.0
27/03:30pm 30.3 30.4 15.6 41 9.2 NE 9 13 5 7 1012.8 1012.0 0.0
27/03:00pm 29.6 30.2 15.7 43 8.6 NE 7 13 4 7 1013.1 1012.2 0.0
27/02:30pm 30.1 30.7 15.4 41 9.1 ESE 6 13 3 7 1013.2 1012.3 0.0
27/02:00pm 30.9 30.8 14.9 37 9.9 ESE 9 17 5 9 1013.4 1012.5 0.0
27/01:30pm 31.2 31.3 14.4 36 10.3 SE 7 15 4 8 1013.8 1012.9 0.0
27/01:00pm 30.8 30.5 14.4 36 10.0 E 9 15 5 8 1014.1 1013.2 0.0
27/12:30pm 29.9 29.5 14.0 37 9.7 SE 9 19 5 10 1014.6 1013.7 0.0
27/12:00pm 29.2 28.6 14.6 41 8.9 ESE 11 17 6 9 1015.0 1014.1 0.0
27/11:30am 29.2 28.7 15.0 42 8.7 SE 11 15 6 8 1015.5 1014.7 0.0
27/11:00am 27.8 27.9 14.4 43 8.1 SE 7 11 4 6 1016.0 1015.2 0.0
27/10:30am 26.8 26.3 14.9 48 7.2 E 11 15 6 8 1016.4 1015.6 0.0
27/10:00am 25.4 26.1 15.7 55 5.9 N 6 9 3 5 1016.5 1015.7 0.0
27/09:30am 24.6 25.2 15.8 58 5.4 ENE 7 11 4 6 1016.6 1015.8 0.0
27/09:00am 23.0 23.8 15.8 64 4.4 SSE 6 9 3 5 1016.5 1015.7 0.0
27/08:30am 21.0 21.6 15.8 72 3.1 S 7 13 4 7 1016.2 1015.4 0.0
27/08:00am 18.8 19.3 14.9 78 2.3 S 6 11 3 6 1016.1 1015.3 0.0
27/07:30am 16.4 17.7 14.1 86 1.3 CALM 0 0 0 0 1015.9 1015.1 0.0
27/07:00am 15.7 16.3 13.0 84 1.5 SSW 2 7 1 4 1015.8 1015.0 0.0
27/06:30am 17.3 16.4 13.8 80 2.0 ESE 11 17 6 9 1015.3 1014.4 0.0
27/06:00am 17.1 16.7 14.0 82 1.8 ESE 9 13 5 7 1014.6 1013.7 0.0
27/05:30am 16.9 17.2 14.4 85 1.4 ENE 6 9 3 5 1014.5 1013.6 0.0
27/05:00am 16.7 17.8 13.4 81 1.9 CALM 0 0 0 0 1014.5 1013.6 0.0
27/04:30am 18.0 17.4 14.5 80 2.0 ENE 11 13 6 7 1014.5 1013.6 0.0
27/04:00am 18.1 17.8 14.4 79 2.2 ENE 9 13 5 7 1014.4 1013.5 0.0
27/03:30am 18.1 18.3 14.2 78 2.3 E 6 13 3 7 1014.3 1013.4 0.0
27/03:00am 18.6 18.9 15.1 80 2.1 E 7 13 4 7 1014.4 1013.5 0.0
27/02:30am 17.9 17.7 13.6 76 2.5 SE 7 11 4 6 1014.6 1013.7 0.0
27/02:00am 19.6 19.5 15.0 75 2.7 ENE 9 11 5 6 1014.7 1013.8 0.0
27/01:30am 19.5 19.6 15.6 78 2.3 E 9 11 5 6 1015.2 1014.3 0.0
27/01:00am 17.5 18.6 13.6 78 2.2 CALM 0 7 0 4 1015.5 1014.7 0.0
27/12:30am 17.9 17.9 13.6 76 2.5 ESE 6 7 3 4 1015.5 1014.7 0.0
27/12:00am 18.6 19.9 14.1 75 2.6 CALM 0 0 0 0 1015.7 1014.9 0.0
 
Date/Time
EST
Temp
°C
App
Temp
°C
Dew
Point
°C
Rel
Hum
%
Delta-T
°C
Wind Press
QNH
hPa
Press
MSL
hPa
Rain since
9am
mm
Dir  Spd
km/h
Gust
km/h
Spd
kts
Gust
kts
26/11:30pm 19.5 20.8 14.1 71 3.1 CALM 0 0 0 0 1015.7 1014.9 0.0
26/11:00pm 20.3 21.0 13.5 65 3.9 SE 2 9 1 5 1015.7 1014.9 0.0
26/10:30pm 21.5 22.8 14.2 63 4.3 CALM 0 0 0 0 1015.4 1014.5 0.0
26/10:00pm 21.9 23.3 14.3 62 4.5 CALM 0 0 0 0 1015.1 1014.2 0.0
26/09:30pm 22.7 22.8 14.0 58 5.1 E 6 7 3 4 1015.0 1014.1 0.0
26/09:00pm 23.3 23.4 14.0 56 5.5 NNE 6 7 3 4 1015.1 1014.2 0.0
26/08:30pm 24.1 24.2 13.9 53 6.0 ENE 6 9 3 5 1015.0 1014.1 0.0
26/08:00pm 24.9 24.8 13.8 50 6.6 ENE 7 11 4 6 1014.5 1013.6 0.0
26/07:30pm 25.4 25.1 13.3 47 7.1 ENE 7 15 4 8 1014.0 1013.1 0.0
26/07:00pm 26.0 25.5 12.8 44 7.7 ENE 7 13 4 7 1013.5 1012.6 0.0
26/06:30pm 26.5 25.9 12.2 41 8.3 NE 7 9 4 5 1013.1 1012.2 0.0
26/06:00pm 27.7 27.2 12.5 39 8.9 ENE 7 13 4 7 1012.7 1011.9 0.0
26/05:30pm 28.6 27.7 12.5 37 9.5 ENE 9 15 5 8 1012.4 1011.6 0.0
26/05:00pm 29.7 28.6 13.0 35 10.0 NE 11 17 6 9 1012.2 1011.4 0.0
26/04:30pm 31.1 31.0 13.8 34 10.5 NE 7 11 4 6 1011.9 1011.1 0.0
26/04:00pm 31.2 30.1 13.0 33 10.9 NNE 11 20 6 11 1011.7 1010.9 0.0
26/03:30pm 31.0 30.0 12.4 32 11.1 ENE 9 17 5 9 1011.9 1011.1 0.0
26/03:00pm 30.3 29.6 13.1 34 10.3 NE 9 15 5 8 1012.1 1011.3 0.0
26/02:30pm 31.4 31.1 13.2 33 11.0 SSE 7 13 4 7 1012.4 1011.6 0.0
26/02:00pm 30.1 30.0 13.8 37 9.9 NE 7 17 4 9 1012.8 1012.0 0.0
26/01:30pm 30.4 29.9 12.8 34 10.5 ENE 7 17 4 9 1013.4 1012.5 0.0
26/01:00pm 30.0 27.9 12.4 34 10.4 ESE 15 24 8 13 1013.7 1012.8 0.0
26/12:30pm 29.6 28.0 13.8 38 9.5 ESE 15 24 8 13 1014.1 1013.2 0.0
26/12:00pm 29.8 28.4 14.4 39 9.4 E 15 24 8 13 1014.7 1013.8 0.0
26/11:30am 28.7 27.9 15.2 43 8.3 ESE 13 20 7 11 1015.2 1014.3 0.0
26/11:00am 27.1 26.4 15.5 49 7.1 E 13 26 7 14 1015.8 1015.0 0.0
26/10:30am 26.3 25.6 15.4 51 6.7 ESE 13 24 7 13 1016.1 1015.3 0.0
26/10:00am 25.7 26.1 16.3 56 5.8 ENE 9 15 5 8 1016.2 1015.4 0.0
26/09:30am 24.3 25.1 15.8 59 5.2 SE 6 9 3 5 1016.2 1015.4 0.0
26/09:00am 22.3 23.0 16.1 68 3.8 E 7 11 4 6 1016.1 1015.3 0.0
26/08:30am 20.6 21.4 15.8 74 2.9 E 6 7 3 4 1015.8 1015.0 0.0
26/08:00am 18.3 18.9 15.7 85 1.5 ESE 7 11 4 6 1015.6 1014.8 0.0
26/07:30am 15.5 16.0 15.0 97 0.3 E 6 7 3 4 1015.5 1014.7 0.0
26/07:00am 14.6 14.7 13.8 95 0.5 ESE 6 7 3 4 1015.2 1014.3 0.0
26/06:30am 14.4 14.3 13.3 93 0.6 E 6 7 3 4 1015.0 1014.1 0.0
26/06:00am 15.0 16.2 13.9 93 0.6 CALM 0 0 0 0 1014.8 1013.9 0.0
26/05:30am 15.2 16.5 14.1 93 0.6 CALM 0 0 0 0 1014.4 1013.5 0.0
26/05:00am 15.3 16.5 13.8 91 0.9 CALM 0 0 0 0 1014.3 1013.4 0.0
26/04:30am 15.7 16.5 13.7 88 1.1 ENE 2 6 1 3 1014.2 1013.3 0.0
26/04:00am 16.4 17.6 13.9 85 1.4 CALM 0 0 0 0 1014.1 1013.2 0.0
26/03:30am 17.3 18.6 14.0 81 1.9 CALM 0 6 0 3 1014.2 1013.3 0.0
26/03:00am 18.6 19.6 14.3 76 2.5 NE 2 7 1 4 1014.3 1013.4 0.0
26/02:30am 19.0 19.8 14.7 76 2.5 E 4 9 2 5 1014.5 1013.6 0.0
26/02:00am 19.1 19.4 14.4 74 2.7 ESE 6 9 3 5 1014.7 1013.8 0.0
26/01:30am 19.7 19.8 14.5 72 3.1 ENE 7 11 4 6 1014.9 1014.0 0.0
26/01:00am 19.9 20.0 14.0 69 3.4 E 6 9 3 5 1015.0 1014.1 0.0
26/12:30am 20.5 19.8 14.4 68 3.6 ESE 11 17 6 9 1015.2 1014.3 0.0
26/12:00am 20.7 21.0 14.4 67 3.7 E 6 11 3 6 1015.2 1014.3 0.0
 
Date/Time
EST
Temp
°C
App
Temp
°C
Dew
Point
°C
Rel
Hum
%
Delta-T
°C
Wind Press
QNH
hPa
Press
MSL
hPa
Rain since
9am
mm
Dir  Spd
km/h
Gust
km/h
Spd
kts
Gust
kts
25/11:30pm 21.2 21.5 14.6 66 3.9 E 6 9 3 5 1015.3 1014.4 0.0
25/11:00pm 21.6 21.0 14.5 64 4.2 E 11 17 6 9 1015.3 1014.4 0.0
25/10:30pm 21.9 21.4 14.8 64 4.2 E 11 19 6 10 1015.2 1014.3 0.0
25/10:00pm 22.0 22.3 14.6 63 4.4 E 6 11 3 6 1015.1 1014.2 0.0
25/09:30pm 22.5 22.8 14.6 61 4.7 E 6 9 3 5 1015.0 1014.1 0.0
25/09:00pm 22.9 23.2 14.5 59 5.0 E 6 9 3 5 1015.0 1014.1 0.0
25/08:30pm 23.9 23.7 14.6 56 5.6 ENE 9 15 5 8 1014.7 1013.8 0.0
25/08:00pm 24.5 24.3 14.6 54 5.9 NE 9 15 5 8 1014.4 1013.5 0.0
25/07:30pm 25.3 25.0 14.4 50 6.5 ENE 9 17 5 9 1014.0 1013.1 0.0
25/07:00pm 25.8 26.0 14.6 50 6.8 NE 7 13 4 7 1013.7 1012.8 0.0
25/06:30pm 26.8 25.7 14.2 46 7.6 ENE 13 20 7 11 1013.2 1012.3 0.0
25/06:00pm 27.7 27.4 14.3 43 8.1 NE 9 13 5 7 1012.8 1012.0 0.0
25/05:30pm 29.1 28.1 14.5 41 8.9 ENE 13 22 7 12 1012.5 1011.7 0.0
25/05:00pm 29.9 28.3 14.0 37 9.7 NNE 15 24 8 13 1012.2 1011.4 0.0
25/04:30pm 31.0 30.1 13.7 34 10.5 ENE 11 19 6 10 1011.9 1011.1 0.0
25/04:00pm 31.3 30.6 13.1 33 11.0 NE 9 17 5 9 1011.9 1011.1 0.0
25/03:30pm 31.5 30.5 13.3 33 11.0 NNE 11 19 6 10 1011.9 1011.1 0.0
25/03:00pm 31.9 31.2 13.2 32 11.3 ENE 9 19 5 10 1012.2 1011.4 0.0
25/02:30pm 31.6 30.6 13.4 33 11.0 NE 11 19 6 10 1012.5 1011.7 0.0
25/02:00pm 31.5 30.1 13.3 33 11.0 E 13 17 7 9 1012.9 1012.1 0.0
25/01:30pm 31.1 30.3 12.9 32 10.9 S 9 13 5 7 1013.5 1012.6 0.0
25/01:00pm 31.3 29.8 13.1 33 11.0 SE 13 20 7 11 1013.9 1013.0 0.0
25/12:30pm 30.4 29.6 12.8 34 10.5 NE 9 20 5 11 1014.4 1013.5 0.0
25/12:00pm 30.0 28.5 12.0 33 10.6 E 11 20 6 11 1014.9 1014.0 0.0
25/11:30am 28.6 27.2 10.8 33 10.2 E 9 17 5 9 1015.2 1014.3 0.0
25/11:00am 28.0 25.6 11.5 35 9.5 ENE 15 22 8 12 1015.7 1014.9 0.0

Other Formats:

Comma delimited format used in spreadsheet applications
http://www.bom.gov.au/fwo/IDQ60801/IDQ60801.94276.axf

JavaScript Object Notation format (JSON) in row-major order
http://www.bom.gov.au/fwo/IDQ60801/IDQ60801.94276.json